Aérodrome :
LOGIN :

S'inscrire | Disclaimer

   EN    FR    IT 

 










Légende :    VFR   VFR Marginal   IFR   IFR Intensif   IFR Très Intensif
Visi : 
Plafond : 
>= 8 km
>= 3000ft
5 à 8 km
1000 à 3000 ft
1500m à 5 km
500 à 1000 ft
800 à 1500m
200 à 500 ft
< 800m
< 200 ft
Symboles :   Orages  Brouillard  Fortes neiges  Fortes précipitations  Vent > 20 kt
SIGMETs :   Divers  Orages  Givrage  Turbulence  Onde Orograph.  Cendres Volcan.







- Altitude de l'aérodrome : 456 ft
- Code IATA : QPZ


LIMS - San Damiano Air Base Piacenza

DERNIER METAR :
  • 130755Z 00000KT 6000 BKN040 SCT060 02/02 Q1016

METARs EXPIRÉS :
  • 130655Z 24003KT 6000 BKN050 02/02 Q1015
  • 130555Z 27003KT 7000 SCT050 BKN070 02/02 Q1015

Prévision TAF périmée.
Pas de NOTAMs connus pour ce terrain.
1 SIGMET publié pour la FIR Milano (LIMM) :
 
Givrage fort
LIMM SIGMET 3 VALID 130800/131000 LIIP
LIMM MILANO FIR SEV ICE FCST WI N4421 E00652 - N4505 E00630 - N4553 E00650 - N4513 E00844 - N4505 E01150 - N4333 E01324 - N4343 E01113 - N4335 E01019 - N4417 E00900 - N4349 E00724 - N4421 E00652 FL060/140 STNR NC=



MET'MAP, la Météo Aéronautique d'un coup d'oeil ! - Copyright ORBIFLY Décembre 2007 - Disclaimer

ORBIFLY MET'MAP TEAM :

Programmation & Développement : Alexandra Zaïnal
Conception & Développement : Baudouin d'Aumeries
Co-Programmation & Développement : Marc-Olivier Méhu
Soutien technique & logistique : Manuel Goepfert

Contact : metmap@orbifly.com




SOURCES & CREDITS :

   NOAA